Time,TemperatureF,DewpointF,PressureIn,WindDirection,WindDirectionDegrees,WindSpeedMPH,WindSpeedGustMPH,Humidity,HourlyPrecipIn,Conditions,Clouds,dailyrainin,SoftwareType,DateUTC
2013-07-22 00:09:00,70.0,68.8,29.86,ESE,112,0.0,-999.0,96,-99.99,,,0.00,Acu-Link.com,2013-07-22 04:09:00,
2013-07-22 00:25:00,70.0,68.8,29.86,WNW,292,0.0,-999.0,96,-99.99,,,0.00,Acu-Link.com,2013-07-22 04:25:00,
2013-07-22 00:40:00,69.4,68.5,29.85,West,270,0.0,-999.0,97,-99.99,,,0.00,Acu-Link.com,2013-07-22 04:40:00,
2013-07-22 00:55:00,69.3,68.7,29.85,East,90,2.2,-999.0,98,-99.99,,,0.00,Acu-Link.com,2013-07-22 04:55:00,
2013-07-22 01:11:00,68.9,68.6,29.84,East,90,0.0,-999.0,99,-99.99,,,0.00,Acu-Link.com,2013-07-22 05:11:00,
2013-07-22 01:26:00,68.5,68.2,29.84,West,270,1.1,-999.0,99,-99.99,,,0.00,Acu-Link.com,2013-07-22 05:26:00,
2013-07-22 01:41:00,68.2,67.9,29.84,West,270,0.0,-999.0,99,-99.99,,,0.00,Acu-Link.com,2013-07-22 05:41:00,
2013-07-22 01:56:00,68.5,68.2,29.85,West,270,3.2,-999.0,99,-99.99,,,0.00,Acu-Link.com,2013-07-22 05:56:00,
2013-07-22 02:11:00,68.0,67.7,29.85,South,180,0.0,-999.0,99,-99.99,,,0.00,Acu-Link.com,2013-07-22 06:11:00,
2013-07-22 02:26:00,68.0,67.7,29.84,East,90,0.0,-999.0,99,-99.99,,,0.00,Acu-Link.com,2013-07-22 06:26:00,
2013-07-22 02:42:00,67.8,67.5,29.83,SE,135,2.2,-999.0,99,-99.99,,,0.00,Acu-Link.com,2013-07-22 06:42:00,
2013-07-22 02:57:00,67.6,67.3,29.83,WNW,292,0.0,-999.0,99,-99.99,,,0.00,Acu-Link.com,2013-07-22 06:57:00,
2013-07-22 03:12:00,67.5,67.2,29.83,West,270,3.2,-999.0,99,-99.99,,,0.00,Acu-Link.com,2013-07-22 07:12:00,
2013-07-22 03:27:00,67.5,67.2,29.83,West,270,4.2,-999.0,99,-99.99,,,0.00,Acu-Link.com,2013-07-22 07:27:00,
2013-07-22 03:42:00,67.6,67.3,29.82,ESE,112,2.2,-999.0,99,-99.99,,,0.00,Acu-Link.com,2013-07-22 07:42:00,
2013-07-22 03:58:00,67.1,66.8,29.81,ENE,67,2.7,-999.0,99,-99.99,,,0.00,Acu-Link.com,2013-07-22 07:58:00,
2013-07-22 04:16:00,67.1,66.8,29.81,East,90,2.2,-999.0,99,-99.99,,,0.00,Acu-Link.com,2013-07-22 08:16:00,
2013-07-22 04:31:00,67.1,66.8,29.81,East,90,2.7,-999.0,99,-99.99,,,0.00,Acu-Link.com,2013-07-22 08:31:00,
2013-07-22 04:46:00,66.9,66.6,29.81,East,90,0.0,-999.0,99,-99.99,,,0.00,Acu-Link.com,2013-07-22 08:46:00,
2013-07-22 05:01:00,66.9,66.6,29.81,SSW,202,0.0,-999.0,99,-99.99,,,0.00,Acu-Link.com,2013-07-22 09:01:00,
2013-07-22 05:16:00,66.6,66.3,29.81,East,90,0.0,-999.0,99,-99.99,,,0.00,Acu-Link.com,2013-07-22 09:16:00,
2013-07-22 05:31:00,66.7,66.4,29.81,West,270,2.7,-999.0,99,-99.99,,,0.00,Acu-Link.com,2013-07-22 09:31:00,
2013-07-22 05:47:00,66.2,65.9,29.81,WNW,292,0.0,-999.0,99,-99.99,,,0.00,Acu-Link.com,2013-07-22 09:47:00,
2013-07-22 06:02:00,66.4,66.1,29.82,East,90,1.1,-999.0,99,-99.99,,,0.00,Acu-Link.com,2013-07-22 10:02:00,
2013-07-22 06:17:00,66.4,66.1,29.82,ESE,112,0.0,-999.0,99,-99.99,,,0.00,Acu-Link.com,2013-07-22 10:17:00,
2013-07-22 06:32:00,66.2,65.9,29.82,South,180,0.0,-999.0,99,-99.99,,,0.00,Acu-Link.com,2013-07-22 10:32:00,
2013-07-22 06:47:00,66.2,65.9,29.81,South,180,0.0,-999.0,99,-99.99,,,0.00,Acu-Link.com,2013-07-22 10:47:00,
2013-07-22 07:03:00,66.9,66.6,29.82,SSW,202,0.0,-999.0,99,-99.99,,,0.00,Acu-Link.com,2013-07-22 11:03:00,
2013-07-22 07:18:00,68.0,67.7,29.82,West,270,2.2,-999.0,99,-99.99,,,0.00,Acu-Link.com,2013-07-22 11:18:00,
2013-07-22 07:33:00,69.3,68.7,29.81,SSW,202,1.7,-999.0,98,-99.99,,,0.00,Acu-Link.com,2013-07-22 11:33:00,
2013-07-22 07:48:00,71.4,69.6,29.81,SW,225,0.0,-999.0,94,-99.99,,,0.00,Acu-Link.com,2013-07-22 11:48:00,
2013-07-22 08:03:00,73.4,70.3,29.81,SSW,202,2.7,-999.0,90,-99.99,,,0.00,Acu-Link.com,2013-07-22 12:03:00,
2013-07-22 08:18:00,72.3,70.2,29.82,West,270,0.0,-999.0,93,-99.99,,,0.00,Acu-Link.com,2013-07-22 12:18:00,
2013-07-22 08:33:00,78.4,72.1,29.81,NE,45,0.0,-999.0,81,-99.99,,,0.00,Acu-Link.com,2013-07-22 12:33:00,
2013-07-22 08:49:00,81.7,73.4,29.82,SW,225,2.2,-999.0,76,-99.99,,,0.00,Acu-Link.com,2013-07-22 12:49:00,
2013-07-22 09:04:00,83.1,72.7,29.81,SW,225,3.2,-999.0,71,-99.99,,,0.00,Acu-Link.com,2013-07-22 13:04:00,
2013-07-22 09:19:00,82.9,72.9,29.81,WSW,247,2.7,-999.0,72,-99.99,,,0.00,Acu-Link.com,2013-07-22 13:19:00,
2013-07-22 09:34:00,82.9,72.9,29.82,West,270,3.2,-999.0,72,-99.99,,,0.00,Acu-Link.com,2013-07-22 13:34:00,
2013-07-22 09:50:00,83.1,73.5,29.81,West,270,0.0,-999.0,73,-99.99,,,0.00,Acu-Link.com,2013-07-22 13:50:00,
2013-07-22 10:05:00,83.3,73.3,29.82,West,270,2.7,-999.0,72,-99.99,,,0.00,Acu-Link.com,2013-07-22 14:05:00,
2013-07-22 10:20:00,81.5,72.4,29.82,WSW,247,3.2,-999.0,74,-99.99,,,0.00,Acu-Link.com,2013-07-22 14:20:00,
2013-07-22 10:36:00,81.5,72.0,29.82,SW,225,2.2,-999.0,73,-99.99,,,0.00,Acu-Link.com,2013-07-22 14:36:00,
2013-07-22 10:51:00,82.4,72.0,29.82,SSW,202,3.2,-999.0,71,-99.99,,,0.00,Acu-Link.com,2013-07-22 14:51:00,
2013-07-22 11:06:00,81.9,72.8,29.82,SW,225,2.2,-999.0,74,-99.99,,,0.00,Acu-Link.com,2013-07-22 15:06:00,
2013-07-22 11:21:00,81.9,73.2,29.81,SW,225,3.7,-999.0,75,-99.99,,,0.00,Acu-Link.com,2013-07-22 15:21:00,
2013-07-22 11:36:00,82.6,72.2,29.81,SSW,202,4.2,-999.0,71,-99.99,,,0.00,Acu-Link.com,2013-07-22 15:36:00,
2013-07-22 11:51:00,83.1,73.1,29.80,West,270,2.2,-999.0,72,-99.99,,,0.00,Acu-Link.com,2013-07-22 15:51:00,
2013-07-22 12:07:00,82.6,73.0,29.80,SW,225,2.7,-999.0,73,-99.99,,,0.00,Acu-Link.com,2013-07-22 16:07:00,
2013-07-22 12:22:00,82.4,72.9,29.80,West,270,3.7,-999.0,73,-99.99,,,0.00,Acu-Link.com,2013-07-22 16:22:00,
2013-07-22 12:37:00,82.4,73.3,29.80,SW,225,3.7,-999.0,74,-99.99,,,0.00,Acu-Link.com,2013-07-22 16:37:00,
2013-07-22 12:52:00,82.2,73.1,29.79,SW,225,1.7,-999.0,74,-99.99,,,0.00,Acu-Link.com,2013-07-22 16:52:00,
2013-07-22 13:07:00,81.7,72.6,29.78,SSW,202,0.0,-999.0,74,-99.99,,,0.00,Acu-Link.com,2013-07-22 17:07:00,
2013-07-22 13:23:00,82.9,72.9,29.78,SSW,202,3.2,-999.0,72,-99.99,,,0.00,Acu-Link.com,2013-07-22 17:23:00,
2013-07-22 13:38:00,80.6,71.9,29.77,NNE,22,2.7,-999.0,75,-99.99,,,0.00,Acu-Link.com,2013-07-22 17:38:00,
2013-07-22 13:53:00,81.5,71.6,29.76,WSW,247,1.7,-999.0,72,-99.99,,,0.00,Acu-Link.com,2013-07-22 17:53:00,
2013-07-22 14:09:00,80.6,69.9,29.76,SE,135,2.2,-999.0,70,-99.99,,,0.00,Acu-Link.com,2013-07-22 18:09:00,
2013-07-22 14:24:00,72.9,70.1,29.76,South,180,3.7,-999.0,91,-99.99,,,0.02,Acu-Link.com,2013-07-22 18:24:00,
2013-07-22 14:54:00,69.4,68.5,29.76,ESE,112,1.7,-999.0,97,-99.99,,,0.82,Acu-Link.com,2013-07-22 18:54:00,
2013-07-22 15:10:00,70.7,69.5,29.75,ESE,112,2.7,-999.0,96,-99.99,,,0.84,Acu-Link.com,2013-07-22 19:10:00,
2013-07-22 15:25:00,71.2,70.0,29.74,ENE,67,2.7,-999.0,96,-99.99,,,0.84,Acu-Link.com,2013-07-22 19:25:00,
2013-07-22 16:11:00,71.6,70.4,29.74,NW,315,2.2,-999.0,96,-99.99,,,0.84,Acu-Link.com,2013-07-22 20:11:00,
2013-07-22 16:26:00,71.8,70.0,29.73,SW,225,2.7,-999.0,94,-99.99,,,0.84,Acu-Link.com,2013-07-22 20:26:00,
2013-07-22 16:41:00,71.4,69.9,29.72,NNE,22,3.7,-999.0,95,-99.99,,,0.84,Acu-Link.com,2013-07-22 20:41:00,
2013-07-22 16:56:00,72.3,70.5,29.72,East,90,2.7,-999.0,94,-99.99,,,0.84,Acu-Link.com,2013-07-22 20:56:00,
2013-07-22 17:11:00,72.7,71.2,29.71,ENE,67,4.2,-999.0,95,-99.99,,,0.84,Acu-Link.com,2013-07-22 21:11:00,
2013-07-22 17:26:00,72.5,71.0,29.71,East,90,3.2,-999.0,95,-99.99,,,0.84,Acu-Link.com,2013-07-22 21:26:00,
2013-07-22 17:42:00,72.7,71.5,29.71,ESE,112,0.0,-999.0,96,-99.99,,,0.84,Acu-Link.com,2013-07-22 21:42:00,
2013-07-22 17:57:00,73.6,72.7,29.71,WSW,247,0.0,-999.0,97,-99.99,,,0.84,Acu-Link.com,2013-07-22 21:57:00,
2013-07-22 18:12:00,74.3,73.1,29.70,SE,135,0.0,-999.0,96,-99.99,,,0.84,Acu-Link.com,2013-07-22 22:12:00,
2013-07-22 18:27:00,74.3,72.8,29.69,ESE,112,1.7,-999.0,95,-99.99,,,0.85,Acu-Link.com,2013-07-22 22:27:00,
2013-07-22 18:42:00,74.8,73.9,29.69,SE,135,0.0,-999.0,97,-99.99,,,0.85,Acu-Link.com,2013-07-22 22:42:00,
2013-07-22 18:58:00,75.0,73.5,29.69,SSE,157,0.0,-999.0,95,-99.99,,,0.85,Acu-Link.com,2013-07-22 22:58:00,
2013-07-22 19:13:00,74.7,72.2,29.69,WSW,247,2.7,-999.0,92,-99.99,,,0.85,Acu-Link.com,2013-07-22 23:13:00,
2013-07-22 19:28:00,73.9,71.4,29.69,WSW,247,2.2,-999.0,92,-99.99,,,0.85,Acu-Link.com,2013-07-22 23:28:00,
2013-07-22 19:43:00,73.2,71.0,29.70,SW,225,4.2,-999.0,93,-99.99,,,0.85,Acu-Link.com,2013-07-22 23:43:00,
2013-07-22 19:59:00,72.9,71.1,29.69,WSW,247,2.2,-999.0,94,-99.99,,,0.85,Acu-Link.com,2013-07-22 23:59:00,
2013-07-22 20:14:00,72.1,70.9,29.69,WSW,247,3.7,-999.0,96,-99.99,,,0.85,Acu-Link.com,2013-07-23 00:14:00,
2013-07-22 20:29:00,72.0,71.1,29.70,West,270,3.7,-999.0,97,-99.99,,,0.85,Acu-Link.com,2013-07-23 00:29:00,
2013-07-22 20:44:00,71.6,70.7,29.70,SW,225,2.2,-999.0,97,-99.99,,,0.85,Acu-Link.com,2013-07-23 00:44:00,
2013-07-22 21:00:00,71.4,70.8,29.71,SW,225,2.2,-999.0,98,-99.99,,,0.85,Acu-Link.com,2013-07-23 01:00:00,
2013-07-22 21:15:00,71.2,70.9,29.70,SSW,202,2.2,-999.0,99,-99.99,,,0.85,Acu-Link.com,2013-07-23 01:15:00,
2013-07-22 21:30:00,70.9,70.6,29.70,West,270,2.2,-999.0,99,-99.99,,,0.85,Acu-Link.com,2013-07-23 01:30:00,
2013-07-22 21:45:00,70.5,70.2,29.70,SSE,157,2.2,-999.0,99,-99.99,,,0.86,Acu-Link.com,2013-07-23 01:45:00,
2013-07-22 22:00:00,70.2,69.9,29.70,SW,225,1.1,-999.0,99,-99.99,,,0.86,Acu-Link.com,2013-07-23 02:00:00,
2013-07-22 22:16:00,70.2,69.6,29.71,SW,225,1.7,-999.0,98,-99.99,,,0.86,Acu-Link.com,2013-07-23 02:16:00,
2013-07-22 22:31:00,69.8,69.2,29.70,SW,225,1.7,-999.0,98,-99.99,,,0.86,Acu-Link.com,2013-07-23 02:31:00,
2013-07-22 22:46:00,69.6,69.0,29.70,SSW,202,0.0,-999.0,98,-99.99,,,0.86,Acu-Link.com,2013-07-23 02:46:00,
2013-07-22 23:01:00,69.4,68.8,29.70,SE,135,0.0,-999.0,98,-99.99,,,0.86,Acu-Link.com,2013-07-23 03:01:00,
2013-07-22 23:16:00,69.3,68.7,29.70,SSW,202,0.0,-999.0,98,-99.99,,,0.86,Acu-Link.com,2013-07-23 03:16:00,
2013-07-22 23:31:00,68.9,68.3,29.69,WSW,247,0.0,-999.0,98,-99.99,,,0.86,Acu-Link.com,2013-07-23 03:31:00,
2013-07-22 23:46:00,68.9,68.3,29.68,SW,225,0.0,-999.0,98,-99.99,,,0.86,Acu-Link.com,2013-07-23 03:46:00,